Pipestone, MN

10:38 AM CDT on September 22, 2017 (GMT -0500)
Pipestone Municipal

Weather History for KPQN - November, 2012

Change the Weather History Date:

Thursday, November 1, 2012

  Actual Average Record
Temperature  
Mean Temperature 38 °F -  
Max Temperature 46 °F 47 °F 68 °F (2000)
Min Temperature 30 °F 29 °F 12 °F (2002)
Degree Days  
Heating Degree Days 27    
Moisture  
Dew Point 30 °F    
Average Humidity 73    
Maximum Humidity 93    
Minimum Humidity 43    
Precipitation  
Precipitation 0.00 in - - ()
Sea Level Pressure  
Sea Level Pressure 30.00 in    
Wind  
Wind Speed 9 mph (NNE)    
Max Wind Speed 18 mph    
Max Gust Speed 23 mph    
Visibility 9 miles    
Events      
Averages and records for this station are not official NWS values.
T = Trace of Precipitation, MM = Missing Value Source: NWS Daily Summary

Daily Weather History Graph

Daily Weather History Graph

Search for Another Location

Airport or City:

Trip Planner

Search our weather history database for the weather conditions in past years. The results will help you decide how hot, cold, wet, or windy it might be!

Date:

Astronomy

Nov. 01, 2012 Rise Set
Actual Time 8:02 AM CDT 6:14 PM CDT
Civil Twilight 7:32 AM CDT 6:44 PM CDT
Nautical Twilight 6:58 AM CDT 7:18 PM CDT
Astronomical Twilight 6:24 AM CDT 7:52 PM CDT
Moon 8:08 PM CDT (11/1) 10:40 AM CDT (11/1)
Length of Visible Light 11h 12m
Length of Day
10h 12m
Waning Gibbous, 93% of the Moon is Illuminated
Nov 1
Waning Gibbous
Nov 6
Last Quarter
Nov 13
New
Nov 20
First Quarter
Nov 28
Full

Hourly Weather History & Observations

Time (CDT) Temp. Windchill Dew Point Humidity Pressure Visibility Wind Dir Wind Speed Gust Speed Precip Events Conditions
12:13 AM 46.4 °F 44.3 °F 35.6 °F 66% 29.96 in 10.0 mi NW 4.6 mph - N/A   Mostly Cloudy
12:33 AM 46.4 °F 45.2 °F 35.6 °F 66% 29.96 in 10.0 mi NW 3.5 mph - N/A   Scattered Clouds
12:53 AM 44.6 °F 42.2 °F 35.6 °F 71% 29.97 in 10.0 mi NNE 4.6 mph - N/A   Clear
1:13 AM 42.8 °F 40.1 °F 35.6 °F 76% 29.97 in 10.0 mi North 4.6 mph - N/A   Clear
1:33 AM 42.8 °F 38.0 °F 35.6 °F 76% 29.97 in 10.0 mi NNE 8.1 mph - N/A   Clear
1:53 AM 42.8 °F 38.0 °F 37.4 °F 81% 29.98 in 10.0 mi North 8.1 mph - N/A   Scattered Clouds
2:13 AM 42.8 °F 38.6 °F 37.4 °F 81% 29.97 in 10.0 mi NNE 6.9 mph - N/A   Scattered Clouds
2:33 AM 42.8 °F 37.5 °F 37.4 °F 81% 29.98 in 10.0 mi NNE 9.2 mph - N/A   Mostly Cloudy
2:54 AM 42.8 °F 38.0 °F 39.2 °F 87% 29.99 in 10.0 mi North 8.1 mph - N/A   Overcast
3:13 AM 42.8 °F 37.0 °F 37.4 °F 81% 29.98 in 10.0 mi NNE 10.4 mph - N/A   Overcast
3:33 AM 42.8 °F 36.2 °F 37.4 °F 81% 29.98 in 7.0 mi NNE 12.7 mph - N/A   Mostly Cloudy
3:53 AM 41.0 °F 34.7 °F 37.4 °F 87% 29.98 in 5.0 mi NNE 10.4 mph 16.1 mph N/A   Mostly Cloudy
4:13 AM 41.0 °F 34.3 °F 37.4 °F 87% 29.98 in 4.0 mi NNE 11.5 mph 18.4 mph N/A   Overcast
4:33 AM 39.2 °F 30.2 °F 37.4 °F 93% 29.98 in 4.0 mi NNE 17.3 mph - N/A   Overcast
4:53 AM 39.2 °F 29.8 °F 37.4 °F 93% 29.98 in 4.0 mi NNE 18.4 mph 23.0 mph N/A   Overcast
5:13 AM 39.2 °F 31.6 °F 37.4 °F 93% 29.98 in 4.0 mi NNE 12.7 mph 18.4 mph N/A   Overcast
5:33 AM 39.2 °F 30.8 °F 37.4 °F 93% 29.99 in 3.0 mi NNE 15.0 mph 19.6 mph N/A   Overcast
5:53 AM 39.2 °F 30.8 °F 37.4 °F 93% 30.00 in 4.0 mi NNE 15.0 mph 23.0 mph N/A   Overcast
6:13 AM 39.2 °F 31.6 °F 37.4 °F 93% 29.99 in 4.0 mi NNE 12.7 mph 23.0 mph N/A   Overcast
6:34 AM 39.2 °F 30.5 °F 37.4 °F 93% 30.01 in 5.0 mi NNE 16.1 mph 20.7 mph N/A   Overcast
6:53 AM 37.4 °F 29.3 °F 35.6 °F 93% 30.01 in 10.0 mi NNE 12.7 mph 23.0 mph N/A   Overcast
7:13 AM 37.4 °F 29.3 °F 35.6 °F 93% 30.01 in 7.0 mi NNE 12.7 mph 19.6 mph N/A   Overcast
7:33 AM 37.4 °F 28.2 °F 35.6 °F 93% 30.01 in 7.0 mi NNE 16.1 mph 21.9 mph N/A   Overcast
7:53 AM 37.4 °F 29.3 °F 33.8 °F 87% 30.02 in 7.0 mi NNE 12.7 mph - N/A   Overcast
8:13 AM 35.6 °F 27.1 °F 33.8 °F 93% 30.02 in 10.0 mi North 12.7 mph - N/A   Overcast
8:33 AM 35.6 °F 26.2 °F 32.0 °F 87% 30.02 in 10.0 mi NNE 15.0 mph 20.7 mph N/A   Overcast
8:53 AM 35.6 °F 26.2 °F 32.0 °F 87% 30.03 in 10.0 mi NNE 15.0 mph 19.6 mph N/A   Overcast
9:13 AM 35.6 °F 26.2 °F 30.2 °F 81% 30.04 in 10.0 mi NNE 15.0 mph 18.4 mph N/A   Overcast
9:33 AM 35.6 °F 26.6 °F 30.2 °F 81% 30.03 in 10.0 mi NNE 13.8 mph 21.9 mph N/A   Overcast
9:54 AM 37.4 °F 28.9 °F 30.2 °F 75% 30.03 in 10.0 mi NE 13.8 mph 19.6 mph N/A   Overcast
10:13 AM 35.6 °F 26.2 °F 30.2 °F 81% 30.04 in 10.0 mi NNE 15.0 mph 19.6 mph N/A   Mostly Cloudy
10:33 AM 35.6 °F 26.6 °F 28.4 °F 75% 30.05 in 10.0 mi NNE 13.8 mph - N/A   Scattered Clouds
10:54 AM 37.4 °F 29.8 °F 30.2 °F 75% 30.04 in 10.0 mi NNE 11.5 mph 20.7 mph N/A   Scattered Clouds
11:13 AM 37.4 °F 29.3 °F 30.2 °F 75% 30.04 in 10.0 mi NNE 12.7 mph - N/A   Scattered Clouds
11:33 AM 37.4 °F 29.8 °F 28.4 °F 70% 30.05 in 10.0 mi NNE 11.5 mph - N/A   Scattered Clouds
11:53 AM 37.4 °F 30.3 °F 28.4 °F 70% 30.04 in 10.0 mi NNE 10.4 mph 19.6 mph N/A   Clear
12:13 PM 37.4 °F 29.8 °F 28.4 °F 70% 30.04 in 10.0 mi NNE 11.5 mph 17.3 mph N/A   Clear
12:53 PM 39.2 °F 32.0 °F 28.4 °F 65% 30.04 in 10.0 mi North 11.5 mph 18.4 mph N/A   Clear
1:13 PM 41.0 °F 35.2 °F 28.4 °F 61% 30.04 in 10.0 mi North 9.2 mph - N/A   Clear
1:33 PM 41.0 °F 34.3 °F 28.4 °F 61% 30.03 in 10.0 mi North 11.5 mph 17.3 mph N/A   Clear
1:54 PM 42.8 °F 36.6 °F 26.6 °F 53% 30.02 in 10.0 mi North 11.5 mph 16.1 mph N/A   Clear
2:13 PM 42.8 °F 37.5 °F 26.6 °F 53% 30.01 in 10.0 mi North 9.2 mph 16.1 mph N/A   Clear
2:33 PM 42.8 °F 38.0 °F 24.8 °F 49% 30.01 in 10.0 mi North 8.1 mph - N/A   Clear
2:53 PM 42.8 °F 36.6 °F 24.8 °F 49% 30.00 in 10.0 mi NNE 11.5 mph - N/A   Clear
3:13 PM 42.8 °F 37.0 °F 23.0 °F 46% 29.99 in 10.0 mi NNE 10.4 mph - N/A   Clear
3:33 PM 42.8 °F 38.0 °F 23.0 °F 46% 29.99 in 10.0 mi NNE 8.1 mph - N/A   Clear
3:53 PM 44.6 °F 38.8 °F 23.0 °F 43% 29.99 in 10.0 mi NNE 11.5 mph - N/A   Clear
4:13 PM 42.8 °F 36.6 °F 23.0 °F 46% 29.99 in 10.0 mi NNE 11.5 mph - N/A   Clear
4:33 PM 42.8 °F 37.5 °F 23.0 °F 46% 29.99 in 10.0 mi NNE 9.2 mph - N/A   Clear
4:53 PM 42.8 °F 37.0 °F 23.0 °F 46% 29.99 in 10.0 mi NNE 10.4 mph - N/A   Clear
5:13 PM 41.0 °F 35.2 °F 24.8 °F 53% 29.99 in 10.0 mi NE 9.2 mph - N/A   Clear
5:33 PM 41.0 °F 34.7 °F 24.8 °F 53% 29.99 in 10.0 mi NE 10.4 mph - N/A   Clear
5:53 PM 39.2 °F 33.6 °F 24.8 °F 56% 29.99 in 10.0 mi NE 8.1 mph - N/A   Clear
6:14 PM 37.4 °F 31.4 °F 24.8 °F 60% 29.99 in 10.0 mi NE 8.1 mph - N/A   Clear
6:33 PM 37.4 °F 32.1 °F 24.8 °F 60% 29.99 in 10.0 mi NE 6.9 mph - N/A   Clear
6:53 PM 35.6 °F 29.9 °F 24.8 °F 65% 30.00 in 10.0 mi NE 6.9 mph - N/A   Clear
7:14 PM 35.6 °F 30.7 °F 24.8 °F 65% 30.00 in 10.0 mi NNE 5.8 mph - N/A   Clear
7:33 PM 33.8 °F 27.7 °F 24.8 °F 70% 30.01 in 10.0 mi NNE 6.9 mph - N/A   Clear
7:53 PM 33.8 °F 29.6 °F 24.8 °F 70% 30.01 in 10.0 mi NE 4.6 mph - N/A   Clear
8:14 PM 32.0 °F 25.6 °F 24.8 °F 75% 30.01 in 10.0 mi NE 6.9 mph - N/A   Clear
8:33 PM 30.2 °F 25.4 °F 23.0 °F 75% 30.00 in 10.0 mi ENE 4.6 mph - N/A   Clear
8:53 PM 30.2 °F 25.4 °F 23.0 °F 75% 30.01 in 10.0 mi NE 4.6 mph - N/A   Clear
9:13 PM 30.2 °F 23.4 °F 23.0 °F 75% 30.00 in 10.0 mi ENE 6.9 mph - N/A   Clear
9:33 PM 30.2 °F 23.4 °F 23.0 °F 75% 30.00 in 10.0 mi NE 6.9 mph - N/A   Clear
9:53 PM 30.2 °F 24.3 °F 24.8 °F 80% 30.00 in 10.0 mi NE 5.8 mph - N/A   Clear
10:13 PM 30.2 °F 22.6 °F 24.8 °F 80% 30.00 in 10.0 mi NE 8.1 mph - N/A   Clear
10:34 PM 30.2 °F 21.9 °F 24.8 °F 80% 30.01 in 10.0 mi ENE 9.2 mph - N/A   Clear
10:53 PM 30.2 °F 21.9 °F 24.8 °F 80% 30.01 in 10.0 mi NE 9.2 mph - N/A   Clear
11:13 PM 30.2 °F 22.6 °F 24.8 °F 80% 30.01 in 10.0 mi NE 8.1 mph - N/A   Clear
11:33 PM 30.2 °F 21.9 °F 24.8 °F 80% 30.02 in 10.0 mi NE 9.2 mph - N/A   Clear
11:53 PM 30.2 °F 24.3 °F 24.8 °F 80% 30.02 in 10.0 mi NE 5.8 mph - N/A   Clear